createdAt,value
2022-09-24T00:02:05.099Z,7.25
2022-09-24T00:05:09.773Z,8.70
2022-09-24T00:08:16.600Z,8.00
2022-09-24T00:11:22.083Z,7.50
2022-09-24T00:14:26.597Z,6.95
2022-09-24T00:17:31.381Z,6.90
2022-09-24T00:20:36.133Z,7.25
2022-09-24T00:23:41.110Z,7.07
2022-09-24T00:26:51.283Z,7.65
2022-09-24T00:29:56.172Z,7.28
2022-09-24T00:33:00.476Z,7.05
2022-09-24T00:36:05.987Z,7.10
2022-09-24T00:39:11.137Z,6.97
2022-09-24T00:42:19.021Z,6.88
2022-09-24T00:45:25.156Z,6.95
2022-09-24T00:48:30.248Z,7.28
2022-09-24T00:51:34.774Z,7.78
2022-09-24T00:54:39.693Z,6.95
2022-09-24T00:57:46.784Z,6.65
2022-09-24T01:00:59.225Z,7.05
2022-09-24T01:04:06.126Z,7.70
2022-09-24T01:07:10.938Z,7.78
2022-09-24T01:10:44.272Z,6.75
2022-09-24T01:14:13.700Z,7.07
2022-09-24T01:17:50.156Z,8.48
2022-09-24T01:21:21.769Z,6.93
2022-09-24T01:25:15.455Z,7.38
2022-09-24T01:28:55.570Z,7.75
2022-09-24T01:32:26.696Z,7.30
2022-09-24T01:35:39.903Z,7.25
2022-09-24T01:38:47.595Z,7.30
2022-09-24T01:41:53.334Z,7.40
2022-09-24T01:45:00.306Z,7.95
2022-09-24T01:48:06.625Z,8.63
2022-09-24T01:51:38.726Z,8.48
2022-09-24T01:54:50.305Z,7.78
2022-09-24T01:58:06.847Z,9.23
2022-09-24T02:01:26.721Z,9.13
2022-09-24T02:04:36.178Z,8.88
2022-09-24T02:08:11.557Z,7.82
2022-09-24T02:11:17.013Z,7.85
2022-09-24T02:14:22.103Z,8.00
2022-09-24T02:17:33.366Z,9.98
2022-09-24T02:20:41.352Z,9.18
2022-09-24T02:23:55.189Z,9.20
2022-09-24T02:26:59.996Z,7.88
2022-09-24T02:30:08.141Z,8.98
2022-09-24T02:33:35.294Z,7.90
2022-09-24T02:36:41.015Z,8.80
2022-09-24T02:39:45.743Z,8.65
2022-09-24T02:42:50.371Z,8.50
2022-09-24T02:45:54.766Z,8.95
2022-09-24T02:48:59.215Z,8.82
2022-09-24T02:52:04.603Z,8.38
2022-09-24T02:55:09.369Z,8.48
2022-09-24T02:58:14.069Z,9.23
2022-09-24T03:01:18.611Z,8.27
2022-09-24T03:04:23.186Z,7.53
2022-09-24T03:07:27.538Z,9.02
2022-09-24T03:10:31.745Z,9.35
2022-09-24T03:13:35.932Z,8.50
2022-09-24T03:16:40.732Z,7.70
2022-09-24T03:19:45.373Z,7.55
2022-09-24T03:22:53.476Z,7.85
2022-09-24T03:25:58.990Z,9.23
2022-09-24T03:29:03.491Z,8.70
2022-09-24T03:32:07.924Z,8.02
2022-09-24T03:35:12.108Z,8.02
2022-09-24T03:38:16.420Z,8.23
2022-09-24T03:41:21.020Z,9.18
2022-09-24T03:44:25.971Z,8.02
2022-09-24T03:47:31.281Z,7.88
2022-09-24T03:50:39.200Z,7.00
2022-09-24T03:53:43.898Z,8.77
2022-09-24T03:56:48.642Z,7.85
2022-09-24T03:59:53.429Z,7.05
2022-09-24T04:02:58.252Z,7.35
2022-09-24T04:06:03.746Z,7.65
2022-09-24T04:09:09.016Z,7.47
2022-09-24T04:12:15.066Z,7.00
2022-09-24T04:15:21.615Z,6.70
2022-09-24T04:18:26.022Z,6.68
2022-09-24T04:21:30.428Z,6.13
2022-09-24T04:24:34.882Z,7.38
2022-09-24T04:27:41.541Z,6.97
2022-09-24T04:30:46.237Z,6.75
2022-09-24T04:33:50.557Z,7.03
2022-09-24T04:36:54.823Z,7.35
2022-09-24T04:39:59.478Z,6.63
2022-09-24T04:43:05.931Z,7.07
2022-09-24T04:46:10.817Z,7.43
2022-09-24T04:49:15.900Z,6.85
2022-09-24T04:52:20.312Z,7.63
2022-09-24T04:55:26.042Z,7.35
2022-09-24T04:58:31.366Z,7.60
2022-09-24T05:01:36.118Z,7.15
2022-09-24T05:04:40.872Z,6.25
2022-09-24T05:07:45.489Z,7.30
2022-09-24T05:10:49.940Z,6.38
2022-09-24T05:13:54.369Z,6.20
2022-09-24T05:16:58.740Z,6.25
2022-09-24T05:20:03.321Z,7.53
2022-09-24T05:23:08.289Z,7.57
2022-09-24T05:26:31.146Z,6.88
2022-09-24T05:29:40.254Z,7.50
2022-09-24T05:32:45.444Z,7.78
2022-09-24T05:35:57.942Z,7.25
2022-09-24T05:39:03.675Z,7.35
2022-09-24T05:42:16.160Z,7.13
2022-09-24T05:45:20.850Z,6.30
2022-09-24T05:48:28.508Z,6.72
2022-09-24T05:51:33.303Z,7.38
2022-09-24T05:54:37.768Z,7.93
2022-09-24T05:57:42.013Z,7.15
2022-09-24T06:00:46.539Z,7.85
2022-09-24T06:03:51.270Z,7.70
2022-09-24T06:06:56.225Z,6.88
2022-09-24T06:10:00.890Z,7.78
2022-09-24T06:13:05.631Z,6.82
2022-09-24T06:16:12.804Z,7.40
2022-09-24T06:19:17.468Z,7.15
2022-09-24T06:22:26.263Z,7.30
2022-09-24T06:25:32.760Z,7.13
2022-09-24T06:28:38.374Z,5.75
2022-09-24T06:31:43.154Z,6.57
2022-09-24T06:34:47.832Z,6.78
2022-09-24T06:37:53.372Z,6.95
2022-09-24T06:41:01.505Z,7.90
2022-09-24T06:44:06.335Z,6.63
2022-09-24T06:47:12.801Z,7.85
2022-09-24T06:50:17.409Z,6.20
2022-09-24T06:53:22.649Z,7.13
2022-09-24T06:56:26.988Z,6.70
2022-09-24T06:59:31.708Z,7.55
2022-09-24T07:02:36.735Z,7.25
2022-09-24T07:05:43.728Z,7.38
2022-09-24T07:08:52.144Z,7.72
2022-09-24T07:11:59.194Z,6.93
2022-09-24T07:15:04.531Z,6.95
2022-09-24T07:18:09.941Z,6.63
2022-09-24T07:21:14.279Z,7.63
2022-09-24T07:24:19.184Z,7.35
2022-09-24T07:27:24.287Z,6.45
2022-09-24T07:30:29.200Z,6.18
2022-09-24T07:33:33.950Z,6.70
2022-09-24T07:36:38.459Z,7.07
2022-09-24T07:39:43.392Z,5.95
2022-09-24T07:42:48.830Z,6.88
2022-09-24T07:45:54.479Z,5.72
2022-09-24T07:48:59.508Z,6.30
2022-09-24T07:52:04.368Z,7.00
2022-09-24T07:55:09.462Z,6.55
2022-09-24T07:58:15.895Z,6.70
2022-09-24T08:01:20.628Z,6.03
2022-09-24T08:04:25.312Z,6.72
2022-09-24T08:07:30.226Z,7.05
2022-09-24T08:10:34.971Z,6.97
2022-09-24T08:13:39.899Z,6.47
2022-09-24T08:16:44.552Z,6.60
2022-09-24T08:19:49.229Z,8.35
2022-09-24T08:22:54.547Z,7.00
2022-09-24T08:25:59.255Z,6.32
2022-09-24T08:29:04.425Z,7.88
2022-09-24T08:32:09.066Z,6.00
2022-09-24T08:35:15.851Z,6.40
2022-09-24T08:38:23.442Z,7.38
2022-09-24T08:41:58.124Z,5.80
2022-09-24T08:45:23.296Z,6.47
2022-09-24T08:48:33.338Z,5.68
2022-09-24T08:51:59.269Z,5.82
2022-09-24T08:55:21.663Z,6.15
2022-09-24T08:58:38.157Z,6.57
2022-09-24T09:02:35.333Z,6.18
2022-09-24T09:09:10.126Z,4.28
2022-09-24T09:12:35.728Z,5.20
2022-09-24T09:15:54.178Z,5.60
2022-09-24T09:19:08.742Z,6.07
2022-09-24T09:22:21.650Z,6.07
2022-09-24T09:25:31.071Z,6.22
2022-09-24T09:28:35.594Z,5.80
2022-09-24T09:31:53.867Z,6.68
2022-09-24T09:35:13.604Z,6.18
2022-09-24T09:39:01.771Z,7.03
2022-09-24T09:42:36.471Z,5.57
2022-09-24T09:46:13.776Z,5.78
2022-09-24T09:49:19.147Z,6.47
2022-09-24T09:52:29.398Z,5.50
2022-09-24T09:55:38.086Z,6.28
2022-09-24T09:58:47.421Z,5.18
2022-09-24T10:01:56.447Z,5.55
2022-09-24T10:05:06.666Z,4.80
2022-09-24T10:08:22.658Z,5.40
2022-09-24T10:11:27.185Z,4.50
2022-09-24T10:14:32.191Z,4.97
2022-09-24T10:17:40.476Z,4.88
2022-09-24T10:20:48.368Z,5.25
2022-09-24T10:23:58.639Z,5.00
2022-09-24T10:27:13.231Z,5.40
2022-09-24T10:30:36.127Z,5.10
2022-09-24T10:33:44.395Z,5.28
2022-09-24T10:36:59.256Z,4.93
2022-09-24T10:40:17.711Z,6.05
2022-09-24T10:43:22.690Z,5.43
2022-09-24T10:47:15.332Z,5.95
2022-09-24T10:50:27.661Z,4.70
2022-09-24T10:53:51.251Z,5.57
2022-09-24T10:56:57.445Z,5.80
2022-09-24T11:00:14.138Z,5.03
2022-09-24T11:04:18.141Z,5.43
2022-09-24T11:08:01.076Z,6.00
2022-09-24T11:11:34.883Z,5.50
2022-09-24T11:15:20.357Z,5.00
2022-09-24T11:18:47.260Z,5.70
2022-09-24T11:22:52.533Z,5.05
2022-09-24T11:29:52.501Z,4.13
2022-09-24T11:37:17.665Z,4.07
2022-09-24T11:40:52.045Z,5.43
2022-09-24T11:44:13.691Z,4.88
2022-09-24T11:47:55.162Z,5.03
2022-09-24T11:51:30.769Z,5.65
2022-09-24T11:55:14.466Z,4.82
2022-09-24T11:58:37.076Z,6.78
2022-09-24T12:01:50.254Z,5.70
2022-09-24T12:05:06.981Z,6.13
2022-09-24T12:08:29.253Z,6.53
2022-09-24T12:11:41.466Z,6.25
2022-09-24T12:15:19.391Z,5.57
2022-09-24T12:18:40.986Z,6.03
2022-09-24T12:21:50.408Z,6.32
2022-09-24T12:24:59.296Z,5.65
2022-09-24T12:28:05.211Z,7.35
2022-09-24T12:32:02.156Z,5.75
2022-09-24T12:35:56.481Z,5.55
2022-09-24T12:39:12.639Z,5.20
2022-09-24T12:42:20.762Z,4.53
2022-09-24T12:45:26.394Z,4.57
2022-09-24T12:48:43.981Z,4.18
2022-09-24T12:51:49.273Z,5.18
2022-09-24T12:55:02.918Z,4.78
2022-09-24T12:58:45.262Z,4.72
2022-09-24T13:01:50.019Z,5.30
2022-09-24T13:05:27.231Z,5.78
2022-09-24T13:08:40.770Z,4.75
2022-09-24T13:11:45.515Z,5.10
2022-09-24T13:15:08.250Z,5.13
2022-09-24T13:18:12.504Z,5.97
2022-09-24T13:21:28.140Z,5.35
2022-09-24T13:24:49.937Z,5.10
2022-09-24T13:28:18.897Z,5.25
2022-09-24T13:31:52.465Z,4.45
2022-09-24T13:35:00.119Z,5.28
2022-09-24T13:38:43.828Z,4.53
2022-09-24T13:42:19.606Z,4.77
2022-09-24T13:45:25.362Z,5.05
2022-09-24T13:48:47.260Z,5.40
2022-09-24T13:52:07.910Z,5.43
2022-09-24T13:55:39.681Z,5.40
2022-09-24T13:58:44.818Z,5.00
2022-09-24T14:01:49.536Z,6.28
2022-09-24T14:05:00.383Z,5.65
2022-09-24T14:08:13.148Z,4.93
2022-09-24T14:11:26.350Z,5.15
2022-09-24T14:14:35.492Z,5.47
2022-09-24T14:17:40.082Z,4.97
2022-09-24T14:20:47.526Z,4.65
2022-09-24T14:23:57.732Z,4.68
2022-09-24T14:27:11.997Z,4.93
2022-09-24T14:30:27.077Z,4.82
2022-09-24T14:33:33.864Z,5.90
2022-09-24T14:36:38.626Z,4.30
2022-09-24T14:39:45.675Z,4.05
2022-09-24T14:42:58.971Z,3.85
2022-09-24T14:46:18.992Z,3.50
2022-09-24T14:49:32.579Z,2.38
2022-09-24T14:52:39.912Z,2.90
2022-09-24T14:55:46.513Z,2.78
2022-09-24T14:58:51.306Z,2.08
2022-09-24T15:02:21.557Z,1.48
2022-09-24T15:05:29.338Z,1.52
2022-09-24T15:08:34.413Z,0.82
2022-09-24T15:11:43.727Z,0.95
2022-09-24T15:15:00.853Z,0.77
2022-09-24T15:18:10.995Z,0.90
2022-09-24T15:21:15.743Z,0.70
2022-09-24T15:24:22.202Z,0.90
2022-09-24T15:27:31.504Z,0.57
2022-09-24T15:30:39.506Z,0.77
2022-09-24T15:33:44.349Z,0.57
2022-09-24T15:36:55.455Z,1.15
2022-09-24T15:40:09.810Z,0.68
2022-09-24T15:43:22.303Z,1.65
2022-09-24T15:46:27.766Z,1.00
2022-09-24T15:49:32.590Z,1.40
2022-09-24T15:52:48.982Z,1.20
2022-09-24T15:56:00.850Z,0.63
2022-09-24T15:59:14.572Z,1.30
2022-09-24T16:02:27.228Z,2.65
2022-09-24T16:05:31.948Z,1.02
2022-09-24T16:08:36.759Z,1.90
2022-09-24T16:11:41.598Z,1.83
2022-09-24T16:14:47.104Z,1.75
2022-09-24T16:17:51.868Z,1.60
2022-09-24T16:20:56.724Z,3.65
2022-09-24T16:24:03.243Z,1.77
2022-09-24T16:27:08.610Z,1.88
2022-09-24T16:30:13.470Z,1.40
2022-09-24T16:33:18.218Z,1.27
2022-09-24T16:36:24.033Z,0.98
2022-09-24T16:39:28.987Z,2.53
2022-09-24T16:42:35.305Z,1.48
2022-09-24T16:45:40.250Z,1.55
2022-09-24T16:48:49.550Z,0.93
2022-09-24T16:51:54.449Z,1.10
2022-09-24T16:54:59.715Z,1.27
2022-09-24T16:58:04.457Z,1.77
2022-09-24T17:01:12.423Z,1.58
2022-09-24T17:04:16.821Z,1.98
2022-09-24T17:07:21.904Z,1.77
2022-09-24T17:10:26.698Z,1.05
2022-09-24T17:13:31.663Z,2.83
2022-09-24T17:16:36.498Z,0.93
2022-09-24T17:19:40.811Z,1.50
2022-09-24T17:22:48.115Z,1.60
2022-09-24T17:26:06.280Z,1.48
2022-09-24T17:29:12.242Z,1.23
2022-09-24T17:32:17.209Z,2.28
2022-09-24T17:35:22.813Z,3.45
2022-09-24T17:38:30.544Z,1.48
2022-09-24T17:41:35.501Z,1.95
2022-09-24T17:44:40.162Z,1.75
2022-09-24T17:48:05.154Z,1.13
2022-09-24T17:51:32.675Z,1.10
2022-09-24T17:54:37.193Z,2.17
2022-09-24T17:57:42.065Z,3.00
2022-09-24T18:00:48.551Z,2.30
2022-09-24T18:03:58.463Z,0.82
2022-09-24T18:07:02.654Z,0.85
2022-09-24T18:10:07.834Z,1.38
2022-09-24T18:13:14.217Z,1.45
2022-09-24T18:16:21.782Z,1.60
2022-09-24T18:19:26.717Z,0.75
2022-09-24T18:22:31.480Z,0.93
2022-09-24T18:25:36.184Z,1.90
2022-09-24T18:28:47.906Z,3.00
2022-09-24T18:31:52.827Z,2.60
2022-09-24T18:34:58.475Z,2.70
2022-09-24T18:38:02.916Z,2.50
2022-09-24T18:41:25.391Z,2.20
2022-09-24T18:44:29.812Z,1.90
2022-09-24T18:47:38.242Z,1.45
2022-09-24T18:50:44.079Z,1.13
2022-09-24T18:53:58.274Z,1.95
2022-09-24T18:57:02.837Z,1.30
2022-09-24T19:00:28.688Z,2.22
2022-09-24T19:03:33.058Z,1.00
2022-09-24T19:06:41.698Z,1.55
2022-09-24T19:09:48.416Z,1.40
2022-09-24T19:12:55.348Z,2.55
2022-09-24T19:16:09.849Z,2.70
2022-09-24T19:19:15.847Z,1.65
2022-09-24T19:22:20.728Z,2.45
2022-09-24T19:25:26.357Z,1.95
2022-09-24T19:28:31.155Z,3.00
2022-09-24T19:31:40.236Z,3.88
2022-09-24T19:34:44.742Z,3.83
2022-09-24T19:37:49.494Z,3.55
2022-09-24T19:41:03.818Z,4.70
2022-09-24T19:44:09.498Z,6.07
2022-09-24T19:47:14.249Z,5.05
2022-09-24T19:50:19.676Z,4.78
2022-09-24T19:53:24.393Z,5.47
2022-09-24T19:56:30.244Z,4.40
2022-09-24T19:59:34.920Z,4.63
2022-09-24T20:02:39.520Z,3.70
2022-09-24T20:05:44.781Z,3.13
2022-09-24T20:08:50.066Z,2.80
2022-09-24T20:11:54.988Z,2.60
2022-09-24T20:14:59.566Z,2.92
2022-09-24T20:18:09.590Z,2.88
2022-09-24T20:21:17.757Z,2.30
2022-09-24T20:24:22.735Z,3.63
2022-09-24T20:27:46.174Z,1.75
2022-09-24T20:30:51.284Z,1.55
2022-09-24T20:33:56.337Z,3.33
2022-09-24T20:37:03.005Z,1.88
2022-09-24T20:40:09.552Z,2.08
2022-09-24T20:43:14.004Z,1.92
2022-09-24T20:46:25.693Z,4.97
2022-09-24T20:49:30.299Z,2.10
2022-09-24T20:52:34.662Z,1.48
2022-09-24T20:55:39.676Z,1.55
2022-09-24T20:58:45.135Z,4.90
2022-09-24T21:01:49.897Z,3.45
2022-09-24T21:04:54.457Z,1.40
2022-09-24T21:07:58.785Z,1.98
2022-09-24T21:11:09.905Z,3.42
2022-09-24T21:14:14.697Z,2.63
2022-09-24T21:17:19.272Z,2.28
2022-09-24T21:20:24.114Z,2.38
2022-09-24T21:23:28.526Z,1.90
2022-09-24T21:26:37.113Z,1.70
2022-09-24T21:29:41.589Z,2.70
2022-09-24T21:32:47.742Z,2.47
2022-09-24T21:35:52.344Z,3.22
2022-09-24T21:39:04.626Z,3.88
2022-09-24T21:42:09.355Z,4.18
2022-09-24T21:45:14.294Z,5.15
2022-09-24T21:48:19.427Z,6.88
2022-09-24T21:51:26.870Z,5.53
2022-09-24T21:54:33.255Z,4.43
2022-09-24T21:57:37.893Z,5.30
2022-09-24T22:00:43.012Z,4.90
2022-09-24T22:03:47.708Z,5.70
2022-09-24T22:06:52.592Z,5.18
2022-09-24T22:09:57.470Z,4.25
2022-09-24T22:13:02.031Z,4.72
2022-09-24T22:16:13.094Z,2.92
2022-09-24T22:19:18.075Z,3.03
2022-09-24T22:22:22.871Z,4.00
2022-09-24T22:25:27.422Z,2.33
2022-09-24T22:28:32.372Z,2.40
2022-09-24T22:31:36.838Z,1.55
2022-09-24T22:34:59.841Z,1.40
2022-09-24T22:38:04.163Z,1.98
2022-09-24T22:41:10.953Z,2.22
2022-09-24T22:44:15.392Z,2.25
2022-09-24T22:47:19.782Z,1.75
2022-09-24T22:50:24.355Z,1.42
2022-09-24T22:53:29.390Z,2.35
2022-09-24T22:56:35.858Z,1.08
2022-09-24T22:59:40.487Z,1.83
2022-09-24T23:02:45.394Z,1.85
2022-09-24T23:05:51.073Z,1.33
2022-09-24T23:08:55.949Z,1.27
2022-09-24T23:12:00.822Z,3.42
2022-09-24T23:15:06.225Z,1.80
2022-09-24T23:18:10.773Z,0.63
2022-09-24T23:21:19.262Z,2.75
2022-09-24T23:24:23.991Z,2.47
2022-09-24T23:27:29.041Z,1.95
2022-09-24T23:30:33.607Z,0.93
2022-09-24T23:33:40.708Z,1.10
2022-09-24T23:36:46.198Z,0.68
2022-09-24T23:39:50.937Z,3.38
2022-09-24T23:42:55.384Z,3.45
2022-09-24T23:46:01.127Z,1.92
2022-09-24T23:49:05.668Z,1.02
2022-09-24T23:52:10.103Z,2.25
2022-09-24T23:55:14.783Z,2.05
2022-09-24T23:58:22.518Z,0.70
